Time;durP1;ratioP1;P1;durP2;ratioP2;P2;SDS_P1;SDS_P2;PMS_P1;PMS_P2;Temp;Humidity;BMP_temperature;BMP_pressure;BME280_temperature;BME280_humidity;BME280_pressure;Samples;Min_cycle;Max_cycle;Signal;HPM_P1;HPM_P2
2022/06/09 00:02:24;;;;;;;;;;;15.80;99.90;;;;;;5013016;28;19922;-76
2022/06/09 00:04:52;;;;;;;;;;;15.80;99.90;;;;;;5019411;28;20425;-76
2022/06/09 00:07:21;;;;;;;;;;;15.80;99.90;;;;;;5005727;28;19956;-76
2022/06/09 00:09:51;;;;;;;;;;;15.80;99.90;;;;;;5022576;28;19926;-76
2022/06/09 00:12:18;;;;;;;;;;;15.80;99.90;;;;;;5022867;28;19992;-76
2022/06/09 00:14:45;;;;;;;;;;;15.80;99.90;;;;;;5043383;28;19991;-76
2022/06/09 00:17:12;;;;;;;;;;;15.80;99.90;;;;;;5021992;28;19925;-76
2022/06/09 00:19:38;;;;;;;;;;;15.70;99.90;;;;;;5022063;28;19929;-76
2022/06/09 00:22:07;;;;;;;;;;;15.70;99.90;;;;;;5013666;28;20056;-76
2022/06/09 00:24:34;;;;;;;;;;;15.70;99.90;;;;;;5013233;28;19929;-76
2022/06/09 00:27:00;;;;;;;;;;;15.70;99.90;;;;;;5014542;28;20288;-77
2022/06/09 00:29:27;;;;;;;;;;;15.70;99.90;;;;;;5012351;28;20257;-76
2022/06/09 00:31:54;;;;;;;;;;;15.60;99.90;;;;;;5037237;28;19925;-76
2022/06/09 00:34:21;;;;;;;;;;;15.60;99.90;;;;;;5013873;28;20386;-76
2022/06/09 00:36:48;;;;;;;;;;;15.60;99.90;;;;;;5034856;28;19925;-76
2022/06/09 00:39:16;;;;;;;;;;;15.60;99.90;;;;;;5012617;28;19925;-76
2022/06/09 00:41:43;;;;;;;;;;;15.60;99.90;;;;;;5009042;28;19929;-76
2022/06/09 00:44:14;;;;;;;;;;;15.60;99.90;;;;;;5035678;28;19951;-76
2022/06/09 00:46:42;;;;;;;;;;;15.50;99.90;;;;;;5023333;28;19932;-76
2022/06/09 00:49:14;;;;;;;;;;;15.60;99.90;;;;;;5022932;28;19969;-76
2022/06/09 00:51:42;;;;;;;;;;;15.50;99.90;;;;;;5016755;28;19925;-76
2022/06/09 00:54:14;;;;;;;;;;;15.50;99.90;;;;;;5030374;28;20430;-76
2022/06/09 00:56:44;;;;;;;;;;;15.50;99.90;;;;;;5014271;28;19980;-76
2022/06/09 00:59:12;;;;;;;;;;;15.50;99.90;;;;;;5023705;28;20006;-76
2022/06/09 01:01:39;;;;;;;;;;;15.50;99.90;;;;;;5022395;28;20036;-76
2022/06/09 01:04:08;;;;;;;;;;;15.40;99.90;;;;;;5018479;28;19936;-76
2022/06/09 01:06:36;;;;;;;;;;;15.40;99.90;;;;;;5009144;28;20016;-76
2022/06/09 01:09:05;;;;;;;;;;;15.40;99.90;;;;;;5013849;28;19958;-76
2022/06/09 01:11:32;;;;;;;;;;;15.40;99.90;;;;;;5014413;28;19948;-76
2022/06/09 01:14:00;;;;;;;;;;;15.30;99.90;;;;;;5013337;28;19936;-76
2022/06/09 01:16:33;;;;;;;;;;;15.30;99.90;;;;;;5011666;28;20299;-76
2022/06/09 01:19:05;;;;;;;;;;;15.30;99.90;;;;;;5033283;28;19926;-76
2022/06/09 01:21:44;;;;;;;;;;;15.30;99.90;;;;;;4994063;28;19925;-76
2022/06/09 01:24:23;;;;;;;;;;;15.30;99.90;;;;;;4993883;28;20000;-76
2022/06/09 01:26:56;;;;;;;;;;;15.20;99.90;;;;;;5010324;28;20019;-76
2022/06/09 01:29:41;;;;;;;;;;;15.20;99.90;;;;;;5018155;28;19925;-76
2022/06/09 01:32:12;;;;;;;;;;;15.20;99.90;;;;;;5014773;28;19929;-76
2022/06/09 01:34:41;;;;;;;;;;;15.20;99.90;;;;;;5034548;28;19929;-76
2022/06/09 01:37:12;;;;;;;;;;;15.10;99.90;;;;;;5023616;28;19926;-77
2022/06/09 01:39:47;;;;;;;;;;;15.10;99.90;;;;;;5020531;28;20374;-76
2022/06/09 01:42:24;;;;;;;;;;;15.10;99.90;;;;;;5016499;28;20468;-76
2022/06/09 01:44:52;;;;;;;;;;;15.10;99.90;;;;;;5016449;28;19930;-76
2022/06/09 01:47:21;;;;;;;;;;;15.00;99.90;;;;;;4997365;28;19981;-76
2022/06/09 01:49:49;;;;;;;;;;;15.00;99.90;;;;;;5024547;28;19926;-76
2022/06/09 01:52:16;;;;;;;;;;;15.00;99.90;;;;;;5014587;28;19932;-76
2022/06/09 01:54:43;;;;;;;;;;;15.00;99.90;;;;;;5014580;28;19961;-76
2022/06/09 01:57:12;;;;;;;;;;;15.00;99.90;;;;;;5013474;28;19925;-76
2022/06/09 01:59:40;;;;;;;;;;;15.00;99.90;;;;;;5035330;28;19926;-76
2022/06/09 02:02:08;;;;;;;;;;;15.00;99.90;;;;;;5014910;28;20020;-76
2022/06/09 02:04:42;;;;;;;;;;;14.90;99.90;;;;;;5014555;28;20016;-76
2022/06/09 02:07:09;;;;;;;;;;;14.90;99.90;;;;;;4998895;28;19926;-76
2022/06/09 02:09:37;;;;;;;;;;;14.90;99.90;;;;;;5027449;28;19968;-76
2022/06/09 02:12:05;;;;;;;;;;;14.90;99.90;;;;;;5019961;28;19926;-76
2022/06/09 02:14:33;;;;;;;;;;;14.90;99.90;;;;;;5038811;28;19952;-76
2022/06/09 02:17:00;;;;;;;;;;;14.80;99.90;;;;;;5014960;28;20361;-76
2022/06/09 02:19:27;;;;;;;;;;;14.80;99.90;;;;;;5026935;28;19925;-76
2022/06/09 02:21:56;;;;;;;;;;;14.80;99.90;;;;;;5035066;28;20450;-76
2022/06/09 02:24:22;;;;;;;;;;;14.80;99.90;;;;;;5019652;28;19952;-78
2022/06/09 02:26:49;;;;;;;;;;;14.70;99.90;;;;;;5025470;28;19983;-76
2022/06/09 02:29:16;;;;;;;;;;;14.70;99.90;;;;;;5027363;28;20015;-75
2022/06/09 02:31:44;;;;;;;;;;;14.60;99.90;;;;;;5036000;28;19932;-76
2022/06/09 02:34:11;;;;;;;;;;;14.60;99.90;;;;;;5035538;28;19936;-76
2022/06/09 02:36:37;;;;;;;;;;;14.60;99.90;;;;;;5015307;28;20649;-76
2022/06/09 02:39:06;;;;;;;;;;;14.50;99.90;;;;;;5036876;28;19929;-76
2022/06/09 02:41:33;;;;;;;;;;;14.50;99.90;;;;;;5021264;28;20379;-75
2022/06/09 02:44:00;;;;;;;;;;;14.50;99.90;;;;;;5038236;28;20031;-76
2022/06/09 02:46:27;;;;;;;;;;;14.40;99.90;;;;;;5018424;28;20755;-76
2022/06/09 02:48:53;;;;;;;;;;;14.40;99.90;;;;;;5031071;28;20866;-76
2022/06/09 02:51:24;;;;;;;;;;;14.40;99.90;;;;;;5024989;28;19992;-76
2022/06/09 02:53:51;;;;;;;;;;;14.40;99.90;;;;;;5032424;28;19929;-76
2022/06/09 02:56:19;;;;;;;;;;;14.30;99.90;;;;;;5022353;28;20262;-76
2022/06/09 02:58:46;;;;;;;;;;;14.30;99.90;;;;;;5020481;28;19925;-75
2022/06/09 03:01:13;;;;;;;;;;;14.30;99.90;;;;;;5014836;28;20028;-76
2022/06/09 03:03:39;;;;;;;;;;;14.30;99.90;;;;;;5017722;28;19929;-76
2022/06/09 03:06:06;;;;;;;;;;;14.20;99.90;;;;;;5021703;28;19928;-76
2022/06/09 03:08:34;;;;;;;;;;;14.20;99.90;;;;;;5014815;28;20691;-75
2022/06/09 03:11:00;;;;;;;;;;;14.20;99.90;;;;;;5029977;28;20303;-76
2022/06/09 03:13:28;;;;;;;;;;;14.20;99.90;;;;;;5018154;28;19933;-76
2022/06/09 03:15:55;;;;;;;;;;;14.20;99.90;;;;;;5010095;28;20024;-76
2022/06/09 03:18:22;;;;;;;;;;;14.10;99.90;;;;;;5025303;28;19925;-76
2022/06/09 03:20:49;;;;;;;;;;;14.20;99.90;;;;;;5050374;28;19932;-76
2022/06/09 03:23:16;;;;;;;;;;;14.10;99.90;;;;;;5032908;28;19929;-76
2022/06/09 03:25:43;;;;;;;;;;;14.10;99.90;;;;;;5023612;28;20582;-76
2022/06/09 03:28:10;;;;;;;;;;;14.10;99.90;;;;;;5016647;28;19926;-76
2022/06/09 03:30:38;;;;;;;;;;;14.10;99.90;;;;;;5014037;28;19949;-75
2022/06/09 03:33:05;;;;;;;;;;;14.10;99.90;;;;;;5031006;28;20493;-76
2022/06/09 03:35:31;;;;;;;;;;;14.10;99.90;;;;;;5019877;28;19925;-75
2022/06/09 03:37:58;;;;;;;;;;;14.00;99.90;;;;;;5026532;28;19925;-76
2022/06/09 03:40:27;;;;;;;;;;;14.00;99.90;;;;;;5013156;28;19925;-76
2022/06/09 03:42:54;;;;;;;;;;;14.00;99.90;;;;;;5011698;28;21400;-76
2022/06/09 03:45:22;;;;;;;;;;;14.00;99.90;;;;;;5006080;28;19978;-75
2022/06/09 03:47:50;;;;;;;;;;;13.90;99.90;;;;;;5022403;28;19926;-76
2022/06/09 03:50:18;;;;;;;;;;;14.00;99.90;;;;;;5017214;28;19944;-77
2022/06/09 03:52:45;;;;;;;;;;;13.90;99.90;;;;;;5018944;28;19936;-76
2022/06/09 03:55:11;;;;;;;;;;;13.90;99.90;;;;;;5018799;28;19984;-76
2022/06/09 03:57:38;;;;;;;;;;;13.90;99.90;;;;;;5016444;28;20305;-76
2022/06/09 04:00:07;;;;;;;;;;;13.90;99.90;;;;;;5031036;28;19926;-76
2022/06/09 04:02:34;;;;;;;;;;;13.90;99.90;;;;;;5014952;28;20032;-76
2022/06/09 04:05:02;;;;;;;;;;;13.90;99.90;;;;;;5018438;28;19933;-76
2022/06/09 04:07:29;;;;;;;;;;;13.90;99.90;;;;;;5021061;28;19926;-76
2022/06/09 04:09:56;;;;;;;;;;;13.80;99.90;;;;;;5020886;28;20012;-76
2022/06/09 04:12:24;;;;;;;;;;;13.80;99.90;;;;;;5032933;28;19956;-76
2022/06/09 04:14:51;;;;;;;;;;;13.80;99.90;;;;;;5023618;28;20384;-76
2022/06/09 04:17:18;;;;;;;;;;;13.80;99.90;;;;;;5023211;28;20395;-76
2022/06/09 04:19:45;;;;;;;;;;;13.80;99.90;;;;;;5031849;28;19925;-76
2022/06/09 04:22:13;;;;;;;;;;;13.90;99.90;;;;;;5032894;28;20069;-76
2022/06/09 04:24:40;;;;;;;;;;;13.90;99.90;;;;;;5026993;28;20304;-76
2022/06/09 04:27:07;;;;;;;;;;;13.90;99.90;;;;;;5018016;28;20342;-76
2022/06/09 04:29:33;;;;;;;;;;;13.90;99.90;;;;;;5014063;28;19932;-76
2022/06/09 04:32:00;;;;;;;;;;;13.90;99.90;;;;;;5039758;28;20410;-76
2022/06/09 04:34:27;;;;;;;;;;;14.00;99.90;;;;;;5029370;28;20248;-75
2022/06/09 04:36:54;;;;;;;;;;;14.00;99.90;;;;;;5035357;28;19932;-76
2022/06/09 04:39:22;;;;;;;;;;;14.00;99.90;;;;;;5046991;28;20040;-76
2022/06/09 04:41:48;;;;;;;;;;;14.00;99.90;;;;;;5032673;28;20037;-76
2022/06/09 04:44:15;;;;;;;;;;;14.10;99.90;;;;;;5031033;28;19925;-76
2022/06/09 04:46:42;;;;;;;;;;;14.10;99.90;;;;;;5018858;28;20016;-76
2022/06/09 04:49:09;;;;;;;;;;;14.10;99.90;;;;;;5020144;28;19926;-75
2022/06/09 04:51:36;;;;;;;;;;;14.10;99.90;;;;;;5031367;28;19973;-76
2022/06/09 04:54:02;;;;;;;;;;;14.10;99.90;;;;;;5047754;28;19926;-76
2022/06/09 04:56:31;;;;;;;;;;;14.20;99.90;;;;;;5011549;28;19925;-76
2022/06/09 04:58:57;;;;;;;;;;;14.20;99.90;;;;;;5023108;28;20024;-76
2022/06/09 05:01:25;;;;;;;;;;;14.30;99.90;;;;;;5011011;28;20400;-76
2022/06/09 05:03:52;;;;;;;;;;;14.30;99.90;;;;;;5015318;28;19929;-76
2022/06/09 05:06:20;;;;;;;;;;;14.30;99.90;;;;;;5023575;28;19956;-76
2022/06/09 05:08:47;;;;;;;;;;;14.30;99.90;;;;;;5028471;28;20397;-76
2022/06/09 05:11:13;;;;;;;;;;;14.40;99.90;;;;;;5035637;28;19929;-76
2022/06/09 05:13:42;;;;;;;;;;;14.40;99.90;;;;;;5035097;28;19925;-76
2022/06/09 05:16:09;;;;;;;;;;;14.40;99.90;;;;;;5021063;28;19957;-76
2022/06/09 05:18:36;;;;;;;;;;;14.50;99.90;;;;;;5022640;28;19926;-76
2022/06/09 05:21:02;;;;;;;;;;;14.50;99.90;;;;;;5014295;28;19930;-76
2022/06/09 05:23:29;;;;;;;;;;;14.50;99.90;;;;;;5012153;28;19925;-76
2022/06/09 05:25:57;;;;;;;;;;;14.60;99.90;;;;;;5012977;28;20361;-76
2022/06/09 05:28:25;;;;;;;;;;;14.60;99.90;;;;;;5015574;28;19925;-76
2022/06/09 05:30:53;;;;;;;;;;;14.60;99.90;;;;;;5014541;28;19977;-76
2022/06/09 05:33:19;;;;;;;;;;;14.60;99.90;;;;;;5013699;28;19932;-76
2022/06/09 05:35:46;;;;;;;;;;;14.60;99.90;;;;;;5012306;28;19926;-76
2022/06/09 05:46:28;;;;;;;;;;;14.80;99.90;;;;;;5013119;28;19976;-76
2022/06/09 05:48:55;;;;;;;;;;;14.80;99.90;;;;;;5016226;28;20379;-76
2022/06/09 05:51:22;;;;;;;;;;;14.80;99.90;;;;;;5013957;28;19936;-76
2022/06/09 05:53:49;;;;;;;;;;;14.80;99.90;;;;;;5015384;28;19925;-76
2022/06/09 05:56:16;;;;;;;;;;;14.80;99.90;;;;;;5016190;28;19969;-76
2022/06/09 05:58:43;;;;;;;;;;;14.70;99.90;;;;;;5015170;28;19980;-76
2022/06/09 06:01:11;;;;;;;;;;;14.70;99.90;;;;;;5013319;28;20053;-76
2022/06/09 06:03:40;;;;;;;;;;;14.80;99.90;;;;;;5014383;28;20372;-76
2022/06/09 06:08:51;;;;;;;;;;;14.80;99.90;;;;;;5013749;28;20019;-76
2022/06/09 06:11:18;;;;;;;;;;;14.80;99.90;;;;;;5016935;28;19984;-76
2022/06/09 06:13:45;;;;;;;;;;;14.80;99.90;;;;;;5013083;28;19926;-76
2022/06/09 06:16:12;;;;;;;;;;;14.80;99.90;;;;;;5011852;28;19925;-76
2022/06/09 06:18:41;;;;;;;;;;;14.80;99.90;;;;;;5011888;28;20431;-76
2022/06/09 06:21:07;;;;;;;;;;;14.90;99.90;;;;;;5012763;28;20024;-75
2022/06/09 06:23:34;;;;;;;;;;;14.80;99.90;;;;;;5010623;28;19932;-76
2022/06/09 06:26:01;;;;;;;;;;;14.80;99.90;;;;;;5012781;28;20008;-76
2022/06/09 06:28:28;;;;;;;;;;;14.90;99.90;;;;;;5011999;28;20016;-77
2022/06/09 06:30:55;;;;;;;;;;;14.90;99.90;;;;;;5012376;28;19930;-76
2022/06/09 06:33:22;;;;;;;;;;;14.90;99.90;;;;;;5012193;28;19961;-76
2022/06/09 06:35:51;;;;;;;;;;;14.90;99.90;;;;;;5012956;28;19925;-76
2022/06/09 06:38:17;;;;;;;;;;;14.90;99.90;;;;;;5012271;28;19975;-76
2022/06/09 06:40:44;;;;;;;;;;;15.00;99.90;;;;;;5013493;28;19930;-75
2022/06/09 06:43:11;;;;;;;;;;;15.00;99.90;;;;;;5010975;28;19929;-76
2022/06/09 06:45:38;;;;;;;;;;;15.00;99.90;;;;;;5010548;28;19925;-76
2022/06/09 06:48:06;;;;;;;;;;;15.10;99.90;;;;;;5012123;28;20421;-79
2022/06/09 06:50:33;;;;;;;;;;;15.00;99.90;;;;;;5011078;28;19988;-80
2022/06/09 06:53:01;;;;;;;;;;;15.10;99.90;;;;;;5036527;28;19925;-77
2022/06/09 06:55:29;;;;;;;;;;;15.10;99.90;;;;;;5019291;28;19960;-78
2022/06/09 06:57:56;;;;;;;;;;;15.20;99.90;;;;;;5027589;28;19925;-76
2022/06/09 07:00:23;;;;;;;;;;;15.20;99.90;;;;;;5027513;28;19933;-79
2022/06/09 07:02:50;;;;;;;;;;;15.20;99.90;;;;;;5008355;28;19932;-78
2022/06/09 07:05:19;;;;;;;;;;;15.20;99.90;;;;;;5011581;28;19926;-77
2022/06/09 07:07:45;;;;;;;;;;;15.40;99.90;;;;;;5009310;28;19925;-78
2022/06/09 07:10:14;;;;;;;;;;;15.40;99.90;;;;;;5009803;28;19936;-77
2022/06/09 07:12:41;;;;;;;;;;;15.40;99.90;;;;;;5006032;28;19933;-79
2022/06/09 07:15:08;;;;;;;;;;;15.50;99.90;;;;;;5022107;28;20036;-77
2022/06/09 07:17:35;;;;;;;;;;;15.50;99.90;;;;;;5012997;28;19956;-75
2022/06/09 07:20:02;;;;;;;;;;;15.60;99.90;;;;;;5013004;28;19936;-78
2022/06/09 07:22:29;;;;;;;;;;;15.70;99.90;;;;;;5009886;28;20039;-76
2022/06/09 07:24:57;;;;;;;;;;;15.70;99.90;;;;;;5015487;28;20014;-75
2022/06/09 07:27:25;;;;;;;;;;;15.70;99.90;;;;;;5039855;28;20362;-76
2022/06/09 07:29:52;;;;;;;;;;;15.80;99.90;;;;;;5048748;28;20113;-78
2022/06/09 07:32:20;;;;;;;;;;;15.90;99.90;;;;;;5021369;28;20011;-77
2022/06/09 07:34:46;;;;;;;;;;;15.90;99.90;;;;;;5018474;28;19925;-77
2022/06/09 07:37:14;;;;;;;;;;;16.00;99.90;;;;;;5021134;28;20343;-79
2022/06/09 07:39:41;;;;;;;;;;;16.00;99.90;;;;;;5014684;28;19929;-80
2022/06/09 07:42:09;;;;;;;;;;;16.10;99.90;;;;;;5017611;28;20414;-81
2022/06/09 07:44:37;;;;;;;;;;;16.10;99.90;;;;;;5012180;28;20354;-81
2022/06/09 07:47:05;;;;;;;;;;;16.20;99.90;;;;;;5010403;28;20590;-81
2022/06/09 07:49:33;;;;;;;;;;;16.20;99.90;;;;;;5012364;28;20039;-90
2022/06/09 07:52:00;;;;;;;;;;;16.30;99.90;;;;;;4995396;28;19957;-83
2022/06/09 07:54:27;;;;;;;;;;;16.30;99.90;;;;;;5026322;28;19996;-84
2022/06/09 07:56:54;;;;;;;;;;;16.30;99.90;;;;;;5008000;28;19930;-84
2022/06/09 07:59:21;;;;;;;;;;;16.40;99.90;;;;;;5010246;28;20363;-84
2022/06/09 08:01:49;;;;;;;;;;;16.40;99.80;;;;;;5012985;28;19925;-84
2022/06/09 08:04:16;;;;;;;;;;;16.50;99.80;;;;;;4995072;28;19926;-83
2022/06/09 08:06:44;;;;;;;;;;;16.50;99.90;;;;;;5011486;28;19926;-81
2022/06/09 08:09:12;;;;;;;;;;;16.60;99.50;;;;;;5008464;28;19934;-81
2022/06/09 08:11:39;;;;;;;;;;;16.70;99.60;;;;;;5009130;28;19969;-81
2022/06/09 08:14:06;;;;;;;;;;;16.70;99.20;;;;;;5010461;28;19963;-81
2022/06/09 08:16:34;;;;;;;;;;;16.70;99.30;;;;;;4993453;28;20032;-81
2022/06/09 08:19:02;;;;;;;;;;;16.70;99.10;;;;;;5008910;28;20308;-81
2022/06/09 08:21:29;;;;;;;;;;;16.80;99.30;;;;;;5009402;28;20364;-82
2022/06/09 08:23:55;;;;;;;;;;;16.80;99.20;;;;;;5004577;28;20028;-80
2022/06/09 08:26:23;;;;;;;;;;;16.80;99.30;;;;;;5005735;28;20458;-82
2022/06/09 08:28:49;;;;;;;;;;;16.80;99.30;;;;;;5007147;28;19930;-83
2022/06/09 08:31:16;;;;;;;;;;;16.90;99.30;;;;;;5008104;28;19932;-81
2022/06/09 08:33:43;;;;;;;;;;;17.00;98.90;;;;;;5009071;28;20431;-80
2022/06/09 08:36:11;;;;;;;;;;;17.00;98.80;;;;;;5009407;28;19925;-82
2022/06/09 08:38:39;;;;;;;;;;;17.10;98.50;;;;;;4996478;28;20403;-82
2022/06/09 08:41:08;;;;;;;;;;;17.20;98.70;;;;;;5014469;28;20941;-82
2022/06/09 08:43:38;;;;;;;;;;;17.30;98.40;;;;;;5011751;28;19925;-81
2022/06/09 08:46:08;;;;;;;;;;;17.30;98.10;;;;;;5013664;28;19926;-87
2022/06/09 08:48:38;;;;;;;;;;;17.40;97.40;;;;;;5015120;28;19930;-89
2022/06/09 08:51:07;;;;;;;;;;;17.30;97.40;;;;;;5007413;28;19926;-86
2022/06/09 08:53:37;;;;;;;;;;;17.40;97.30;;;;;;5020762;28;19925;-84
2022/06/09 08:56:05;;;;;;;;;;;17.40;97.30;;;;;;4993683;28;19926;-82
2022/06/09 08:58:35;;;;;;;;;;;17.40;97.60;;;;;;5042777;28;20028;-83
2022/06/09 09:01:04;;;;;;;;;;;17.50;97.80;;;;;;5029990;28;20392;-80
2022/06/09 09:03:33;;;;;;;;;;;17.50;97.60;;;;;;5012538;28;20023;-82
2022/06/09 09:06:04;;;;;;;;;;;17.60;97.00;;;;;;5013198;28;20386;-83
2022/06/09 09:08:31;;;;;;;;;;;17.60;97.00;;;;;;5014640;28;20231;-78
2022/06/09 09:11:08;;;;;;;;;;;17.70;96.90;;;;;;5015575;28;20016;-79
2022/06/09 09:13:40;;;;;;;;;;;17.80;96.60;;;;;;5011873;28;19925;-82
2022/06/09 09:16:12;;;;;;;;;;;17.90;96.60;;;;;;5014939;28;19992;-80
2022/06/09 09:18:43;;;;;;;;;;;17.90;96.50;;;;;;5013813;28;19980;-81
2022/06/09 09:21:18;;;;;;;;;;;17.90;96.90;;;;;;5015151;28;19925;-84
2022/06/09 09:23:47;;;;;;;;;;;17.90;96.80;;;;;;5012893;28;19925;-83
2022/06/09 09:26:31;;;;;;;;;;;17.90;96.90;;;;;;5015958;28;19961;-81
2022/06/09 09:29:03;;;;;;;;;;;18.00;96.80;;;;;;5027465;28;19972;-81
2022/06/09 09:31:36;;;;;;;;;;;18.10;96.50;;;;;;5011333;28;20019;-86
2022/06/09 09:34:04;;;;;;;;;;;18.20;95.80;;;;;;5015572;28;19960;-81
2022/06/09 09:36:35;;;;;;;;;;;18.20;95.30;;;;;;5018720;28;20421;-81
2022/06/09 09:39:11;;;;;;;;;;;18.20;96.20;;;;;;5025102;28;19929;-81
2022/06/09 09:41:39;;;;;;;;;;;18.30;94.80;;;;;;5034206;28;19948;-80
2022/06/09 09:44:14;;;;;;;;;;;18.40;94.30;;;;;;5012215;28;20376;-80
2022/06/09 09:46:42;;;;;;;;;;;18.40;94.50;;;;;;5012211;28;19929;-79
2022/06/09 09:49:17;;;;;;;;;;;18.40;95.20;;;;;;5012381;28;20033;-79
2022/06/09 09:51:45;;;;;;;;;;;18.30;95.40;;;;;;5013085;28;19961;-82
2022/06/09 09:54:18;;;;;;;;;;;18.30;95.40;;;;;;5013606;28;19976;-83
2022/06/09 09:56:45;;;;;;;;;;;18.30;96.10;;;;;;4997521;28;20384;-83
2022/06/09 09:59:22;;;;;;;;;;;18.30;95.90;;;;;;4996081;28;19930;-84
2022/06/09 10:10:12;;;;;;;;;;;18.60;95.30;;;;;;5011982;28;20386;-83
2022/06/09 10:12:38;;;;;;;;;;;18.60;95.10;;;;;;5013024;28;19925;-82
2022/06/09 10:15:14;;;;;;;;;;;18.70;95.20;;;;;;5013855;28;19926;-83
2022/06/09 10:17:43;;;;;;;;;;;18.70;95.20;;;;;;5013385;28;19936;-83
2022/06/09 10:20:20;;;;;;;;;;;18.80;94.60;;;;;;4996958;28;19936;-83
2022/06/09 10:22:55;;;;;;;;;;;18.80;94.00;;;;;;4996920;28;20037;-85
2022/06/09 10:25:25;;;;;;;;;;;18.80;94.10;;;;;;5014310;28;19925;-86
2022/06/09 10:27:54;;;;;;;;;;;18.80;93.40;;;;;;4997270;28;19934;-86
2022/06/09 10:30:26;;;;;;;;;;;18.80;94.10;;;;;;5013832;28;19973;-83
2022/06/09 10:32:56;;;;;;;;;;;18.80;94.10;;;;;;5013619;28;19996;-84
2022/06/09 10:35:27;;;;;;;;;;;18.90;93.70;;;;;;5013387;28;19965;-82
2022/06/09 10:37:58;;;;;;;;;;;18.90;93.70;;;;;;5012606;28;20372;-90
2022/06/09 10:43:35;;;;;;;;;;;18.90;93.50;;;;;;5011359;28;19925;-82
2022/06/09 10:46:06;;;;;;;;;;;18.90;94.10;;;;;;5010429;28;19965;-82
2022/06/09 10:57:04;;;;;;;;;;;18.90;93.60;;;;;;5009697;28;20392;-85
2022/06/09 10:59:33;;;;;;;;;;;19.00;92.70;;;;;;5011689;28;19980;-83
2022/06/09 11:02:01;;;;;;;;;;;19.00;93.30;;;;;;5011641;28;19937;-84
2022/06/09 11:04:31;;;;;;;;;;;19.00;93.30;;;;;;5010379;28;20024;-84
2022/06/09 11:07:11;;;;;;;;;;;19.00;93.30;;;;;;5011331;28;20037;-85
2022/06/09 11:09:45;;;;;;;;;;;19.10;92.60;;;;;;4995408;28;19925;-84
2022/06/09 11:12:16;;;;;;;;;;;19.10;93.00;;;;;;5010923;28;19937;-83
2022/06/09 11:14:53;;;;;;;;;;;19.10;92.40;;;;;;5012406;28;19932;-82
2022/06/09 11:17:26;;;;;;;;;;;19.20;92.60;;;;;;5012060;28;19965;-82
2022/06/09 11:20:01;;;;;;;;;;;19.20;92.30;;;;;;5011774;28;19976;-83
2022/06/09 11:22:30;;;;;;;;;;;19.20;91.90;;;;;;5010137;28;20374;-83
2022/06/09 11:25:03;;;;;;;;;;;19.20;91.30;;;;;;5012299;28;19926;-83
2022/06/09 11:27:38;;;;;;;;;;;19.20;91.90;;;;;;5011916;28;20474;-84
2022/06/09 11:30:12;;;;;;;;;;;19.20;91.70;;;;;;5011441;28;19926;-83
2022/06/09 11:32:43;;;;;;;;;;;19.20;91.70;;;;;;5012272;28;20040;-85
2022/06/09 11:35:17;;;;;;;;;;;19.20;92.10;;;;;;5012250;28;19965;-86
2022/06/09 11:37:51;;;;;;;;;;;19.20;92.30;;;;;;5010823;28;20371;-85
2022/06/09 11:40:22;;;;;;;;;;;19.30;91.60;;;;;;5010387;28;19925;-86
2022/06/09 11:43:01;;;;;;;;;;;19.40;91.10;;;;;;5011568;28;19953;-83
2022/06/09 11:45:30;;;;;;;;;;;19.30;91.30;;;;;;5010858;28;19926;-81
2022/06/09 11:47:59;;;;;;;;;;;19.30;91.50;;;;;;4995475;28;19926;-83
2022/06/09 11:50:30;;;;;;;;;;;19.30;91.40;;;;;;5011652;28;20016;-82
2022/06/09 11:52:58;;;;;;;;;;;19.30;92.00;;;;;;5011108;28;20396;-82
2022/06/09 11:55:28;;;;;;;;;;;19.40;92.40;;;;;;5010184;28;19929;-84
2022/06/09 11:57:54;;;;;;;;;;;19.40;92.60;;;;;;5011091;28;20362;-84
2022/06/09 12:00:37;;;;;;;;;;;19.50;91.30;;;;;;5010164;28;20445;-85
2022/06/09 12:03:12;;;;;;;;;;;19.50;91.60;;;;;;5009429;28;20411;-84
2022/06/09 12:05:48;;;;;;;;;;;19.60;91.60;;;;;;5009429;28;19975;-84
2022/06/09 12:08:23;;;;;;;;;;;19.70;91.30;;;;;;5009012;28;19926;-84
2022/06/09 12:10:59;;;;;;;;;;;19.70;90.80;;;;;;5008686;28;19957;-84
2022/06/09 12:13:28;;;;;;;;;;;19.60;91.50;;;;;;5009425;28;20024;-85
2022/06/09 12:15:58;;;;;;;;;;;19.50;91.20;;;;;;4993793;28;19926;-83
2022/06/09 12:18:29;;;;;;;;;;;19.60;90.80;;;;;;5009265;28;20032;-84
2022/06/09 12:21:02;;;;;;;;;;;19.60;90.60;;;;;;5011370;28;20380;-83
2022/06/09 12:23:30;;;;;;;;;;;19.60;87.80;;;;;;5010196;28;19980;-84
2022/06/09 12:26:16;;;;;;;;;;;19.60;87.80;;;;;;5010751;28;20010;-84
2022/06/09 12:28:44;;;;;;;;;;;19.60;88.10;;;;;;4993900;28;19933;-86
2022/06/09 12:31:12;;;;;;;;;;;19.60;88.60;;;;;;4993937;28;19929;-83
2022/06/09 12:33:45;;;;;;;;;;;19.50;90.30;;;;;;5011066;28;20193;-84
2022/06/09 12:36:12;;;;;;;;;;;19.50;90.40;;;;;;5008965;28;19968;-82
2022/06/09 12:38:40;;;;;;;;;;;19.50;91.00;;;;;;5009306;28;19984;-82
2022/06/09 12:41:13;;;;;;;;;;;19.50;90.80;;;;;;5009903;28;20510;-84
2022/06/09 12:43:42;;;;;;;;;;;19.50;91.00;;;;;;5010368;28;19995;-83
2022/06/09 12:46:17;;;;;;;;;;;19.50;90.50;;;;;;4992592;28;19925;-82
2022/06/09 12:48:45;;;;;;;;;;;19.60;89.20;;;;;;5008902;28;19926;-82
2022/06/09 12:51:17;;;;;;;;;;;19.70;87.30;;;;;;5009901;28;19925;-82
2022/06/09 12:53:51;;;;;;;;;;;19.70;86.80;;;;;;5009830;28;20394;-82
2022/06/09 12:56:22;;;;;;;;;;;19.70;87.50;;;;;;4993114;28;19985;-82
2022/06/09 12:58:50;;;;;;;;;;;19.80;87.20;;;;;;5006396;28;19926;-82
2022/06/09 13:01:19;;;;;;;;;;;19.70;89.30;;;;;;5010781;28;19973;-82
2022/06/09 13:03:49;;;;;;;;;;;19.80;89.10;;;;;;5010782;28;19929;-81
2022/06/09 13:06:22;;;;;;;;;;;19.90;88.40;;;;;;5009607;28;19925;-82
2022/06/09 13:08:49;;;;;;;;;;;19.90;87.20;;;;;;5010564;28;19925;-82
2022/06/09 13:11:19;;;;;;;;;;;20.00;85.60;;;;;;5010803;28;20035;-81
2022/06/09 13:13:46;;;;;;;;;;;20.00;82.30;;;;;;5010338;28;19936;-83
2022/06/09 13:16:15;;;;;;;;;;;20.00;82.50;;;;;;5010830;28;19965;-82
2022/06/09 13:18:43;;;;;;;;;;;20.00;82.00;;;;;;5009822;28;20919;-82
2022/06/09 13:21:15;;;;;;;;;;;19.90;83.80;;;;;;5009959;28;19932;-82
2022/06/09 13:23:43;;;;;;;;;;;20.00;81.00;;;;;;5005839;28;20121;-82
2022/06/09 13:26:12;;;;;;;;;;;20.00;80.20;;;;;;5012875;28;19930;-83
2022/06/09 13:28:40;;;;;;;;;;;19.90;81.60;;;;;;5010886;28;19926;-83
2022/06/09 13:31:23;;;;;;;;;;;19.90;83.20;;;;;;4997250;28;20016;-83
2022/06/09 13:33:53;;;;;;;;;;;19.90;84.00;;;;;;5011510;28;20024;-83
2022/06/09 13:36:27;;;;;;;;;;;19.90;84.80;;;;;;4997527;28;20033;-83
2022/06/09 13:38:55;;;;;;;;;;;20.00;85.60;;;;;;5011678;28;20022;-82
2022/06/09 13:41:27;;;;;;;;;;;20.10;86.40;;;;;;5012961;28;20024;-83
2022/06/09 13:43:56;;;;;;;;;;;20.20;83.50;;;;;;5011097;28;19973;-83
2022/06/09 13:46:24;;;;;;;;;;;20.20;83.90;;;;;;5013507;28;20020;-82
2022/06/09 13:48:56;;;;;;;;;;;20.20;83.70;;;;;;5013770;28;19932;-82
2022/06/09 13:51:28;;;;;;;;;;;20.30;77.20;;;;;;5013667;28;20392;-82
2022/06/09 13:54:02;;;;;;;;;;;20.40;79.70;;;;;;5014202;28;19930;-82
2022/06/09 13:56:28;;;;;;;;;;;20.30;82.40;;;;;;5013035;28;19929;-82
2022/06/09 13:58:55;;;;;;;;;;;20.40;80.00;;;;;;5011462;28;19960;-82
2022/06/09 14:01:22;;;;;;;;;;;20.40;80.30;;;;;;4996343;28;19925;-82
2022/06/09 14:03:50;;;;;;;;;;;20.40;79.70;;;;;;5011827;28;20394;-82
2022/06/09 14:06:18;;;;;;;;;;;20.40;80.60;;;;;;5012385;28;19926;-82
2022/06/09 14:08:47;;;;;;;;;;;20.50;74.60;;;;;;5011954;28;19972;-82
2022/06/09 14:11:16;;;;;;;;;;;20.40;75.40;;;;;;5013254;28;19925;-82
2022/06/09 14:13:43;;;;;;;;;;;20.40;72.60;;;;;;5013389;28;19944;-82
2022/06/09 14:16:11;;;;;;;;;;;20.40;74.40;;;;;;5013262;28;20487;-82
2022/06/09 14:18:38;;;;;;;;;;;20.40;69.20;;;;;;5013779;28;19964;-82
2022/06/09 14:21:05;;;;;;;;;;;20.40;70.80;;;;;;5014074;28;19976;-82
2022/06/09 14:23:33;;;;;;;;;;;20.40;67.50;;;;;;5013807;28;20408;-82
2022/06/09 14:26:02;;;;;;;;;;;20.40;66.60;;;;;;5013215;28;20396;-82
2022/06/09 14:28:31;;;;;;;;;;;20.40;66.00;;;;;;5012932;28;20045;-82
2022/06/09 14:30:58;;;;;;;;;;;20.40;67.20;;;;;;5012620;28;20020;-82
2022/06/09 14:33:25;;;;;;;;;;;20.40;64.50;;;;;;5012888;28;19936;-82
2022/06/09 14:35:52;;;;;;;;;;;20.40;63.90;;;;;;5011631;28;19925;-82
2022/06/09 14:38:19;;;;;;;;;;;20.30;63.50;;;;;;5013355;28;19930;-82
2022/06/09 14:40:47;;;;;;;;;;;20.30;65.60;;;;;;5011517;28;20422;-82
2022/06/09 14:43:15;;;;;;;;;;;20.30;66.80;;;;;;4994224;28;19930;-82
2022/06/09 14:45:44;;;;;;;;;;;20.30;68.10;;;;;;5012355;28;20305;-82
2022/06/09 14:48:13;;;;;;;;;;;20.30;66.90;;;;;;5012066;28;19991;-82
2022/06/09 14:50:40;;;;;;;;;;;20.30;68.00;;;;;;5009663;28;19972;-82
2022/06/09 14:53:07;;;;;;;;;;;20.30;66.40;;;;;;5012304;28;20043;-82
2022/06/09 14:55:36;;;;;;;;;;;20.40;67.50;;;;;;5012192;28;20403;-82
2022/06/09 14:58:03;;;;;;;;;;;20.30;67.10;;;;;;5012408;28;19977;-82